createdAt,value
2022-08-01T00:03:32.369Z,11387.54199
2022-08-01T00:18:34.569Z,11562.69141
2022-08-01T00:33:36.809Z,6684.87207
2022-08-01T00:48:38.979Z,7603.93604
2022-08-01T01:03:58.773Z,7759.31055
2022-08-01T01:19:01.653Z,4815.66943
2022-08-01T01:34:03.964Z,3410.70679
2022-08-01T01:49:06.245Z,2355.10156
2022-08-01T02:04:08.545Z,1436.03748
2022-08-01T02:19:10.931Z,1079.14685
2022-08-01T02:34:13.146Z,763.68945
2022-08-01T02:49:15.486Z,543.34009
2022-08-01T03:04:17.826Z,279.67419
2022-08-01T03:19:20.021Z,126.18297
2022-08-01T03:34:22.217Z,36.72489
2022-08-01T03:49:24.570Z,6.59165
2022-08-01T04:04:26.886Z,0.94166
2022-08-01T04:19:29.090Z,0
2022-08-01T04:34:31.334Z,0
2022-08-01T04:49:33.607Z,0
2022-08-01T05:04:51.550Z,0
2022-08-01T05:19:53.968Z,0
2022-08-01T05:34:56.201Z,0
2022-08-01T05:49:58.433Z,0
2022-08-01T06:05:00.626Z,0
2022-08-01T06:20:02.824Z,0
2022-08-01T06:35:05.063Z,0
2022-08-01T06:50:07.278Z,0
2022-08-01T07:05:12.089Z,0
2022-08-01T07:20:16.529Z,0
2022-08-01T07:35:18.998Z,0
2022-08-01T07:50:21.195Z,0
2022-08-01T08:05:58.816Z,0
2022-08-01T08:21:06.472Z,0
2022-08-01T08:36:09.268Z,0
2022-08-01T08:51:11.476Z,0
2022-08-01T09:06:13.670Z,0
2022-08-01T09:21:15.928Z,0
2022-08-01T09:36:18.355Z,0
2022-08-01T09:51:58.397Z,0
2022-08-01T10:07:02.315Z,0
2022-08-01T10:22:04.903Z,0
2022-08-01T10:37:08.693Z,0
2022-08-01T10:52:11.182Z,0
2022-08-01T11:07:13.631Z,0
2022-08-01T11:22:16.338Z,0
2022-08-01T11:37:18.526Z,0
2022-08-01T11:52:20.797Z,0.94166
2022-08-01T12:07:23.206Z,9.41664
2022-08-01T12:22:26.629Z,61.20816
2022-08-01T12:37:28.904Z,166.67451
2022-08-01T12:52:31.085Z,343.70734
2022-08-01T13:07:39.705Z,584.77332
2022-08-01T13:22:47.422Z,1231.69641
2022-08-01T13:37:49.766Z,1965.25256
2022-08-01T13:52:52.118Z,2469.04272
2022-08-01T14:07:56.352Z,2952.11646
2022-08-01T14:22:59.019Z,3615.9895
2022-08-01T14:38:01.262Z,4540.70361
2022-08-01T14:53:03.653Z,4904.18555
2022-08-01T15:08:05.885Z,4786.47754
2022-08-01T15:23:08.043Z,5387.25928
2022-08-01T15:38:10.221Z,6540.79736
2022-08-01T15:53:12.562Z,7311.07861
2022-08-01T16:08:14.788Z,7192.4292
2022-08-01T16:23:17.041Z,4196.0542
2022-08-01T16:38:21.005Z,4035.97168
2022-08-01T16:53:24.475Z,7384.52832
2022-08-01T17:08:26.936Z,3592.44775
2022-08-01T17:23:29.133Z,8172.70117
2022-08-01T17:38:31.362Z,7679.26904
2022-08-01T17:53:33.617Z,3382.45679
2022-08-01T18:08:35.904Z,6489.00586
2022-08-01T18:23:38.110Z,8127.50146
2022-08-01T18:38:40.525Z,7879.84375
2022-08-01T18:53:47.099Z,7909.03516
2022-08-01T19:08:49.321Z,8421.30078
2022-08-01T19:23:51.530Z,8404.35059
2022-08-01T19:38:53.745Z,8546.54199
2022-08-01T19:53:55.988Z,8464.61719
2022-08-01T20:08:58.196Z,8864.82422
2022-08-01T20:24:02.996Z,8923.20703
2022-08-01T20:39:05.584Z,8987.24023
2022-08-01T20:54:11.236Z,8395.87598
2022-08-01T21:09:13.482Z,6072.79053
2022-08-01T21:24:15.742Z,4890.06055
2022-08-01T21:39:17.989Z,4322.2373
2022-08-01T21:54:20.422Z,3996.42163
2022-08-01T22:09:22.789Z,5316.63428
2022-08-01T22:24:25.009Z,4266.6792
2022-08-01T22:39:27.248Z,3080.18262
2022-08-01T22:54:29.461Z,3040.63281
2022-08-01T23:09:52.729Z,2917.2749
2022-08-01T23:25:04.736Z,2870.19165
2022-08-01T23:40:07.989Z,4137.67139
2022-08-01T23:55:15.431Z,8629.4082
